createdAt,value
2022-11-20T00:01:25.973Z,23.40
2022-11-20T00:03:54.112Z,21.13
2022-11-20T00:06:21.423Z,24.70
2022-11-20T00:08:48.459Z,23.15
2022-11-20T00:11:18.256Z,21.30
2022-11-20T00:13:46.028Z,21.40
2022-11-20T00:16:14.856Z,21.83
2022-11-20T00:18:41.265Z,20.65
2022-11-20T00:21:12.275Z,21.33
2022-11-20T00:23:38.631Z,20.65
2022-11-20T00:26:07.701Z,21.63
2022-11-20T00:28:34.322Z,22.42
2022-11-20T00:31:17.388Z,19.92
2022-11-20T00:33:44.703Z,21.77
2022-11-20T00:36:13.980Z,21.63
2022-11-20T00:38:40.363Z,22.38
2022-11-20T00:41:09.644Z,20.15
2022-11-20T00:43:36.055Z,21.65
2022-11-20T00:46:05.130Z,21.98
2022-11-20T00:48:31.510Z,20.92
2022-11-20T00:50:57.870Z,23.00
2022-11-20T00:53:24.988Z,23.00
2022-11-20T00:55:56.032Z,24.58
2022-11-20T00:58:23.222Z,24.08
2022-11-20T01:00:50.194Z,24.55
2022-11-20T01:03:25.574Z,23.52
2022-11-20T01:05:53.264Z,23.90
2022-11-20T01:08:19.565Z,23.55
2022-11-20T01:10:45.869Z,23.60
2022-11-20T01:13:12.203Z,23.88
2022-11-20T01:15:38.743Z,20.92
2022-11-20T01:18:05.245Z,22.05
2022-11-20T01:20:35.784Z,21.77
2022-11-20T01:23:03.168Z,21.55
2022-11-20T01:25:30.121Z,21.05
2022-11-20T01:27:56.484Z,21.83
2022-11-20T01:30:22.829Z,20.85
2022-11-20T01:32:49.144Z,20.17
2022-11-20T01:35:15.519Z,20.67
2022-11-20T01:37:41.858Z,20.23
2022-11-20T01:40:08.872Z,21.48
2022-11-20T01:42:35.494Z,20.20
2022-11-20T01:45:02.034Z,19.92
2022-11-20T01:47:36.889Z,19.05
2022-11-20T01:50:38.772Z,20.05
2022-11-20T01:53:11.840Z,19.35
2022-11-20T01:55:42.655Z,19.05
2022-11-20T01:58:09.414Z,18.27
2022-11-20T02:00:35.849Z,19.02
2022-11-20T02:03:09.937Z,18.38
2022-11-20T02:06:00.427Z,19.05
2022-11-20T02:08:26.794Z,17.35
2022-11-20T02:10:53.175Z,19.50
2022-11-20T02:13:19.621Z,18.08
2022-11-20T02:15:47.847Z,19.02
2022-11-20T02:18:18.227Z,18.52
2022-11-20T02:20:48.536Z,20.75
2022-11-20T02:23:17.570Z,18.40
2022-11-20T02:25:46.733Z,19.13
2022-11-20T02:28:13.242Z,17.60
2022-11-20T02:30:39.569Z,18.45
2022-11-20T02:33:05.895Z,18.35
2022-11-20T02:35:32.169Z,18.83
2022-11-20T02:38:03.416Z,18.20
2022-11-20T02:40:30.406Z,17.70
2022-11-20T02:42:57.723Z,17.90
2022-11-20T02:45:25.381Z,19.55
2022-11-20T02:47:52.367Z,20.80
2022-11-20T02:50:19.262Z,21.50
2022-11-20T02:52:45.662Z,19.58
2022-11-20T02:55:12.657Z,21.08
2022-11-20T02:57:39.027Z,19.83
2022-11-20T03:00:06.651Z,19.88
2022-11-20T03:02:33.783Z,19.67
2022-11-20T03:05:00.150Z,19.25
2022-11-20T03:07:26.471Z,19.13
2022-11-20T03:09:52.829Z,18.90
2022-11-20T03:12:19.128Z,19.40
2022-11-20T03:14:50.218Z,18.83
2022-11-20T03:17:19.130Z,18.25
2022-11-20T03:19:45.477Z,19.20
2022-11-20T03:22:11.779Z,20.40
2022-11-20T03:24:38.140Z,20.08
2022-11-20T03:27:04.438Z,20.48
2022-11-20T03:29:30.817Z,20.60
2022-11-20T03:31:57.126Z,19.38
2022-11-20T03:34:23.461Z,20.55
2022-11-20T03:36:49.808Z,20.55
2022-11-20T03:39:16.128Z,20.13
2022-11-20T03:41:42.635Z,18.38
2022-11-20T03:44:11.173Z,18.73
2022-11-20T03:46:38.058Z,17.77
2022-11-20T03:49:04.765Z,17.80
2022-11-20T03:51:33.484Z,17.63
2022-11-20T03:54:02.363Z,18.60
2022-11-20T03:56:31.057Z,17.45
2022-11-20T03:58:57.893Z,17.98
2022-11-20T04:01:27.148Z,17.38
2022-11-20T04:03:55.110Z,17.65
2022-11-20T04:06:29.562Z,17.20
2022-11-20T04:08:57.644Z,17.70
2022-11-20T04:11:26.886Z,16.67
2022-11-20T04:13:56.720Z,18.10
2022-11-20T04:16:24.779Z,17.55
2022-11-20T04:18:55.977Z,16.17
2022-11-20T04:21:22.622Z,16.67
2022-11-20T04:23:49.577Z,16.33
2022-11-20T04:26:16.070Z,16.58
2022-11-20T04:28:42.452Z,19.15
2022-11-20T04:31:14.543Z,18.63
2022-11-20T04:33:41.760Z,18.58
2022-11-20T04:36:12.571Z,18.70
2022-11-20T04:38:39.894Z,19.15
2022-11-20T04:41:08.149Z,19.33
2022-11-20T04:43:35.071Z,19.60
2022-11-20T04:46:02.066Z,19.52
2022-11-20T04:48:29.684Z,21.20
2022-11-20T04:50:56.200Z,20.17
2022-11-20T04:53:23.597Z,19.73
2022-11-20T04:55:49.996Z,18.98
2022-11-20T04:58:17.358Z,19.73
2022-11-20T05:00:43.702Z,19.98
2022-11-20T05:03:10.023Z,20.20
2022-11-20T05:05:36.422Z,19.65
2022-11-20T05:08:02.863Z,19.08
2022-11-20T05:10:29.332Z,18.77
2022-11-20T05:12:55.712Z,20.25
2022-11-20T05:15:22.238Z,19.88
2022-11-20T05:17:52.875Z,18.40
2022-11-20T05:20:19.915Z,20.00
2022-11-20T05:22:46.669Z,20.90
2022-11-20T05:25:13.281Z,19.85
2022-11-20T05:27:39.609Z,20.38
2022-11-20T05:30:06.630Z,21.85
2022-11-20T05:32:32.995Z,21.88
2022-11-20T05:34:59.379Z,20.95
2022-11-20T05:37:25.690Z,21.65
2022-11-20T05:39:52.035Z,23.02
2022-11-20T05:42:18.365Z,22.80
2022-11-20T05:44:44.699Z,23.30
2022-11-20T05:47:11.006Z,23.20
2022-11-20T05:49:37.336Z,21.98
2022-11-20T05:52:03.823Z,22.27
2022-11-20T05:54:30.144Z,21.70
2022-11-20T05:56:56.465Z,20.65
2022-11-20T05:59:23.000Z,21.33
2022-11-20T06:01:49.564Z,21.38
2022-11-20T06:04:15.876Z,20.42
2022-11-20T06:06:42.210Z,18.65
2022-11-20T06:09:08.537Z,19.95
2022-11-20T06:11:34.872Z,18.25
2022-11-20T06:14:01.209Z,18.83
2022-11-20T06:16:27.537Z,18.35
2022-11-20T06:18:53.852Z,20.08
2022-11-20T06:21:21.841Z,18.52
2022-11-20T06:23:48.879Z,17.42
2022-11-20T06:26:21.189Z,17.63
2022-11-20T06:28:47.897Z,19.05
2022-11-20T06:31:16.571Z,18.63
2022-11-20T06:33:44.110Z,18.08
2022-11-20T06:36:12.861Z,18.10
2022-11-20T06:38:40.103Z,18.17
2022-11-20T06:41:07.699Z,18.52
2022-11-20T06:43:34.042Z,19.98
2022-11-20T06:46:00.515Z,18.00
2022-11-20T06:48:28.189Z,19.75
2022-11-20T06:50:54.522Z,17.83
2022-11-20T06:53:20.882Z,18.15
2022-11-20T06:55:48.003Z,18.77
2022-11-20T06:58:15.318Z,19.17
2022-11-20T07:00:42.412Z,18.48
2022-11-20T07:03:11.025Z,18.77
2022-11-20T07:05:38.146Z,17.88
2022-11-20T07:08:05.257Z,18.45
2022-11-20T07:10:32.281Z,18.25
2022-11-20T07:12:58.592Z,18.27
2022-11-20T07:15:25.593Z,17.42
2022-11-20T07:17:52.251Z,19.30
2022-11-20T07:20:18.776Z,20.67
2022-11-20T07:22:45.130Z,19.00
2022-11-20T07:25:11.681Z,19.42
2022-11-20T07:27:38.039Z,19.20
2022-11-20T07:30:05.143Z,19.23
2022-11-20T07:32:31.472Z,19.58
2022-11-20T07:34:57.828Z,20.85
2022-11-20T07:37:24.134Z,20.90
2022-11-20T07:39:50.454Z,20.23
2022-11-20T07:42:16.858Z,19.67
2022-11-20T07:44:43.184Z,19.90
2022-11-20T07:47:09.480Z,20.42
2022-11-20T07:49:35.797Z,20.02
2022-11-20T07:52:05.032Z,21.15
2022-11-20T07:54:31.802Z,19.90
2022-11-20T07:56:58.125Z,20.33
2022-11-20T07:59:24.540Z,21.00
2022-11-20T08:01:50.942Z,20.30
2022-11-20T08:04:17.271Z,20.73
2022-11-20T08:06:43.635Z,21.08
2022-11-20T08:09:09.983Z,22.27
2022-11-20T08:11:36.294Z,22.05
2022-11-20T08:14:02.616Z,21.88
2022-11-20T08:16:29.145Z,21.55
2022-11-20T08:18:55.932Z,19.75
2022-11-20T08:21:22.235Z,23.02
2022-11-20T08:23:48.569Z,23.70
2022-11-20T08:26:14.888Z,22.05
2022-11-20T08:28:41.190Z,22.77
2022-11-20T08:31:07.505Z,22.48
2022-11-20T08:33:33.837Z,21.85
2022-11-20T08:36:01.732Z,21.88
2022-11-20T08:38:28.173Z,23.38
2022-11-20T08:40:58.626Z,23.00
2022-11-20T08:43:24.934Z,21.75
2022-11-20T08:45:51.245Z,22.95
2022-11-20T08:48:17.556Z,22.63
2022-11-20T08:50:43.886Z,23.10
2022-11-20T08:53:10.203Z,23.15
2022-11-20T08:55:36.724Z,23.50
2022-11-20T08:58:07.307Z,23.10
2022-11-20T09:00:34.719Z,23.55
2022-11-20T09:03:01.690Z,25.20
2022-11-20T09:05:28.444Z,23.52
2022-11-20T09:07:58.618Z,23.55
2022-11-20T09:10:25.352Z,22.02
2022-11-20T09:12:53.136Z,24.45
2022-11-20T09:15:20.295Z,22.80
2022-11-20T09:18:00.631Z,24.58
2022-11-20T09:20:28.782Z,24.13
2022-11-20T09:22:55.664Z,23.77
2022-11-20T09:25:22.200Z,24.73
2022-11-20T09:27:48.557Z,25.08
2022-11-20T09:30:16.264Z,24.08
2022-11-20T09:32:43.628Z,24.92
2022-11-20T09:35:10.497Z,23.92
2022-11-20T09:37:36.971Z,25.42
2022-11-20T09:40:04.023Z,25.25
2022-11-20T09:42:38.149Z,24.77
2022-11-20T09:45:55.677Z,25.70
2022-11-20T09:48:32.161Z,28.40
2022-11-20T09:51:11.298Z,27.92
2022-11-20T09:53:55.631Z,27.42
2022-11-20T09:56:22.911Z,22.50
2022-11-20T09:58:52.426Z,21.05
2022-11-20T10:01:32.760Z,19.50
2022-11-20T10:04:04.222Z,19.77
2022-11-20T10:06:42.880Z,17.23
2022-11-20T10:09:12.172Z,15.43
2022-11-20T10:12:07.784Z,14.98
2022-11-20T10:14:39.785Z,13.43
2022-11-20T10:17:43.274Z,13.40
2022-11-20T10:20:36.427Z,13.55
2022-11-20T10:23:30.689Z,12.57
2022-11-20T10:26:04.726Z,13.23
2022-11-20T10:29:09.300Z,12.75
2022-11-20T10:31:41.494Z,13.27
2022-11-20T10:34:21.018Z,12.48
2022-11-20T10:36:56.882Z,11.77
2022-11-20T10:40:01.645Z,13.00
2022-11-20T10:42:46.218Z,12.65
2022-11-20T10:45:24.779Z,12.23
2022-11-20T10:47:53.853Z,13.60
2022-11-20T10:50:22.994Z,13.75
2022-11-20T10:53:34.805Z,13.80
2022-11-20T10:56:20.322Z,12.23
2022-11-20T10:59:01.258Z,13.70
2022-11-20T11:01:27.802Z,13.77
2022-11-20T11:03:56.265Z,14.50
2022-11-20T11:06:46.328Z,14.38
2022-11-20T11:09:33.512Z,15.30
2022-11-20T11:12:05.758Z,15.02
2022-11-20T11:14:46.222Z,15.25
2022-11-20T11:17:47.718Z,14.88
2022-11-20T11:20:25.429Z,14.52
2022-11-20T11:22:53.151Z,13.52
2022-11-20T11:25:28.438Z,13.30
2022-11-20T11:27:56.885Z,14.15
2022-11-20T11:30:25.354Z,13.48
2022-11-20T11:33:02.699Z,12.77
2022-11-20T11:35:29.342Z,13.63
2022-11-20T11:38:05.533Z,12.95
2022-11-20T11:40:37.216Z,14.52
2022-11-20T11:43:08.581Z,13.82
2022-11-20T11:45:34.918Z,13.88
2022-11-20T11:48:04.563Z,13.55
2022-11-20T11:50:30.946Z,12.50
2022-11-20T11:53:09.847Z,12.88
2022-11-20T11:55:44.814Z,13.05
2022-11-20T11:58:19.790Z,14.48
2022-11-20T12:00:58.097Z,12.00
2022-11-20T12:03:36.748Z,13.25
2022-11-20T12:06:09.952Z,12.90
2022-11-20T12:08:54.112Z,11.70
2022-11-20T12:11:47.735Z,10.95
2022-11-20T12:14:34.996Z,9.25
2022-11-20T12:17:02.757Z,8.35
2022-11-20T12:19:35.354Z,9.30
2022-11-20T12:22:26.386Z,8.13
2022-11-20T12:25:02.637Z,8.57
2022-11-20T12:27:53.801Z,9.30
2022-11-20T12:30:22.064Z,8.75
2022-11-20T12:33:19.222Z,9.00
2022-11-20T12:36:17.241Z,8.48
2022-11-20T12:38:46.523Z,8.70
2022-11-20T12:41:28.166Z,9.43
2022-11-20T12:44:24.073Z,9.18
2022-11-20T12:47:09.522Z,9.75
2022-11-20T12:49:49.268Z,9.25
2022-11-20T12:52:27.552Z,8.25
2022-11-20T12:55:13.341Z,8.10
2022-11-20T12:57:47.309Z,7.88
2022-11-20T13:00:20.563Z,7.60
2022-11-20T13:03:13.512Z,8.25
2022-11-20T13:05:49.153Z,7.60
2022-11-20T13:08:37.027Z,8.27
2022-11-20T13:11:19.985Z,7.72
2022-11-20T13:14:12.525Z,6.97
2022-11-20T13:16:51.493Z,6.90
2022-11-20T13:19:19.044Z,7.07
2022-11-20T13:21:50.356Z,7.78
2022-11-20T13:24:20.020Z,7.45
2022-11-20T13:26:47.735Z,7.53
2022-11-20T13:29:19.492Z,7.90
2022-11-20T13:31:49.332Z,7.13
2022-11-20T13:34:25.853Z,7.80
2022-11-20T13:36:57.925Z,6.93
2022-11-20T13:39:29.767Z,7.80
2022-11-20T13:41:58.930Z,7.80
2022-11-20T13:44:37.598Z,7.45
2022-11-20T13:47:04.588Z,8.55
2022-11-20T13:49:35.177Z,7.50
2022-11-20T13:52:15.074Z,7.15
2022-11-20T13:54:50.378Z,7.53
2022-11-20T13:57:19.664Z,7.28
2022-11-20T13:59:55.097Z,7.40
2022-11-20T14:02:23.986Z,8.13
2022-11-20T14:04:53.635Z,8.27
2022-11-20T14:07:24.697Z,7.97
2022-11-20T14:09:56.840Z,8.55
2022-11-20T14:12:29.031Z,7.88
2022-11-20T14:14:55.907Z,8.13
2022-11-20T14:17:23.964Z,8.38
2022-11-20T14:19:52.573Z,9.00
2022-11-20T14:22:24.659Z,8.00
2022-11-20T14:25:12.515Z,8.40
2022-11-20T14:27:41.415Z,7.82
2022-11-20T14:30:19.974Z,8.23
2022-11-20T14:32:47.777Z,8.52
2022-11-20T14:35:41.420Z,9.48
2022-11-20T14:38:12.816Z,9.13
2022-11-20T14:40:39.177Z,9.93
2022-11-20T14:43:23.520Z,10.32
2022-11-20T14:46:07.950Z,9.93
2022-11-20T14:48:44.130Z,9.95
2022-11-20T14:51:12.328Z,11.18
2022-11-20T14:53:38.743Z,11.43
2022-11-20T14:56:05.261Z,12.52
2022-11-20T14:58:34.312Z,11.95
2022-11-20T15:01:08.272Z,12.05
2022-11-20T15:03:39.591Z,8.50
2022-11-20T15:06:08.088Z,12.45
2022-11-20T15:08:35.316Z,12.20
2022-11-20T15:11:02.410Z,13.18
2022-11-20T15:13:38.568Z,12.95
2022-11-20T15:16:17.358Z,14.35
2022-11-20T15:18:44.038Z,15.38
2022-11-20T15:21:16.098Z,18.45
2022-11-20T15:23:43.529Z,16.83
2022-11-20T15:26:15.390Z,15.73
2022-11-20T15:28:46.636Z,15.05
2022-11-20T15:31:14.725Z,13.48
2022-11-20T15:33:41.044Z,14.50
2022-11-20T15:36:07.649Z,13.48
2022-11-20T15:38:33.984Z,14.15
2022-11-20T15:41:00.330Z,13.43
2022-11-20T15:43:26.648Z,13.77
2022-11-20T15:46:00.257Z,15.07
2022-11-20T15:48:36.803Z,15.25
2022-11-20T15:51:11.949Z,15.60
2022-11-20T15:53:39.137Z,16.67
2022-11-20T15:56:05.628Z,16.08
2022-11-20T15:58:31.934Z,15.77
2022-11-20T16:00:58.365Z,17.58
2022-11-20T16:03:25.086Z,15.70
2022-11-20T16:05:51.387Z,16.33
2022-11-20T16:08:17.726Z,15.93
2022-11-20T16:10:44.050Z,15.70
2022-11-20T16:13:16.903Z,17.85
2022-11-20T16:15:46.227Z,17.30
2022-11-20T16:18:15.898Z,18.02
2022-11-20T16:20:42.450Z,16.20
2022-11-20T16:23:08.791Z,17.50
2022-11-20T16:25:35.185Z,18.20
2022-11-20T16:28:01.478Z,19.30
2022-11-20T16:30:27.789Z,18.85
2022-11-20T16:32:54.523Z,17.88
2022-11-20T16:35:20.862Z,20.95
2022-11-20T16:37:47.147Z,19.42
2022-11-20T16:40:13.451Z,21.38
2022-11-20T16:42:39.742Z,19.90
2022-11-20T16:45:06.570Z,21.17
2022-11-20T16:47:36.048Z,19.90
2022-11-20T16:50:04.033Z,18.80
2022-11-20T16:52:31.131Z,17.58
2022-11-20T16:54:58.171Z,17.38
2022-11-20T16:57:25.071Z,17.52
2022-11-20T16:59:51.376Z,17.98
2022-11-20T17:02:17.709Z,18.30
2022-11-20T17:04:44.017Z,17.75
2022-11-20T17:07:10.423Z,17.98
2022-11-20T17:09:36.790Z,17.13
2022-11-20T17:12:03.265Z,17.88
2022-11-20T17:14:29.631Z,18.35
2022-11-20T17:16:55.930Z,17.65
2022-11-20T17:19:22.241Z,17.85
2022-11-20T17:21:48.563Z,17.27
2022-11-20T17:24:15.534Z,17.45
2022-11-20T17:26:43.516Z,16.23
2022-11-20T17:29:16.168Z,16.23
2022-11-20T17:31:43.221Z,17.02
2022-11-20T17:34:13.597Z,15.18
2022-11-20T17:36:44.889Z,16.27
2022-11-20T17:39:16.044Z,15.48
2022-11-20T17:41:42.373Z,16.30
2022-11-20T17:44:12.872Z,16.58
2022-11-20T17:46:39.804Z,14.48
2022-11-20T17:49:06.307Z,16.35
2022-11-20T17:51:33.605Z,14.18
2022-11-20T17:54:02.222Z,15.10
2022-11-20T17:56:32.983Z,15.60
2022-11-20T17:59:00.784Z,14.57
2022-11-20T18:01:27.137Z,15.02
2022-11-20T18:03:56.212Z,15.13
2022-11-20T18:06:25.092Z,14.80
2022-11-20T18:08:52.079Z,15.05
2022-11-20T18:11:18.319Z,14.38
2022-11-20T18:13:47.963Z,14.05
2022-11-20T18:16:14.395Z,15.35
2022-11-20T18:18:40.703Z,14.35
2022-11-20T18:21:07.017Z,15.48
2022-11-20T18:23:33.762Z,15.25
2022-11-20T18:26:00.581Z,15.30
2022-11-20T18:28:26.880Z,14.75
2022-11-20T18:30:53.393Z,15.88
2022-11-20T18:33:23.038Z,14.80
2022-11-20T18:35:51.829Z,14.10
2022-11-20T18:38:18.133Z,15.02
2022-11-20T18:40:44.447Z,14.25
2022-11-20T18:43:11.152Z,14.43
2022-11-20T18:45:37.494Z,15.27
2022-11-20T18:48:03.914Z,15.55
2022-11-20T18:50:30.256Z,14.15
2022-11-20T18:52:56.549Z,14.07
2022-11-20T18:55:22.873Z,15.88
2022-11-20T18:57:49.182Z,14.18
2022-11-20T19:00:15.855Z,15.25
2022-11-20T19:02:43.411Z,13.82
2022-11-20T19:05:14.456Z,13.48
2022-11-20T19:07:41.146Z,13.43
2022-11-20T19:10:08.243Z,14.15
2022-11-20T19:12:34.577Z,14.05
2022-11-20T19:15:00.909Z,14.60
2022-11-20T19:17:27.238Z,14.93
2022-11-20T19:19:53.590Z,14.60
2022-11-20T19:22:20.008Z,14.85
2022-11-20T19:24:46.337Z,15.68
2022-11-20T19:27:12.659Z,16.08
2022-11-20T19:29:39.030Z,16.23
2022-11-20T19:32:05.510Z,15.52
2022-11-20T19:34:31.877Z,16.13
2022-11-20T19:36:58.370Z,17.17
2022-11-20T19:39:24.923Z,16.65
2022-11-20T19:41:51.436Z,16.95
2022-11-20T19:44:17.802Z,17.83
2022-11-20T19:46:44.366Z,17.13
2022-11-20T19:49:13.179Z,18.10
2022-11-20T19:51:44.596Z,17.45
2022-11-20T19:54:10.945Z,17.98
2022-11-20T19:56:37.276Z,18.67
2022-11-20T19:59:03.603Z,18.13
2022-11-20T20:01:31.660Z,18.77
2022-11-20T20:03:59.516Z,19.00
2022-11-20T20:06:26.370Z,20.45
2022-11-20T20:09:02.490Z,19.48
2022-11-20T20:11:31.184Z,21.08
2022-11-20T20:13:57.531Z,20.10
2022-11-20T20:16:25.660Z,20.95
2022-11-20T20:19:00.015Z,21.90
2022-11-20T20:21:26.366Z,22.10
2022-11-20T20:23:54.362Z,23.25
2022-11-20T20:26:22.658Z,20.45
2022-11-20T20:28:49.179Z,22.95
2022-11-20T20:31:18.902Z,21.40
2022-11-20T20:33:45.710Z,20.77
2022-11-20T20:36:13.989Z,22.30
2022-11-20T20:38:40.603Z,21.27
2022-11-20T20:41:06.933Z,21.20
2022-11-20T20:43:33.379Z,21.48
2022-11-20T20:45:59.716Z,20.67
2022-11-20T20:48:26.049Z,25.67
2022-11-20T20:50:57.719Z,23.20
2022-11-20T20:53:25.029Z,22.17
2022-11-20T20:55:58.787Z,23.42
2022-11-20T20:58:25.755Z,26.27
2022-11-20T21:00:52.296Z,22.92
2022-11-20T21:03:19.766Z,21.42
2022-11-20T21:05:46.813Z,23.05
2022-11-20T21:08:13.252Z,25.17
2022-11-20T21:10:39.595Z,25.25
2022-11-20T21:13:05.938Z,22.23
2022-11-20T21:15:32.237Z,24.58
2022-11-20T21:17:58.545Z,27.92
2022-11-20T21:20:24.867Z,30.77
2022-11-20T21:22:51.184Z,23.63
2022-11-20T21:25:17.540Z,23.30
2022-11-20T21:27:43.869Z,22.70
2022-11-20T21:30:10.737Z,24.38
2022-11-20T21:32:37.073Z,23.60
2022-11-20T21:35:03.456Z,27.45
2022-11-20T21:37:29.764Z,25.58
2022-11-20T21:39:56.105Z,24.10
2022-11-20T21:42:22.425Z,25.42
2022-11-20T21:44:48.799Z,26.08
2022-11-20T21:47:15.195Z,26.55
2022-11-20T21:49:41.523Z,25.17
2022-11-20T21:52:07.868Z,25.42
2022-11-20T21:54:34.160Z,24.42
2022-11-20T21:57:00.467Z,26.58
2022-11-20T21:59:26.812Z,24.70
2022-11-20T22:01:53.182Z,23.52
2022-11-20T22:04:19.631Z,25.15
2022-11-20T22:06:45.976Z,24.20
2022-11-20T22:09:13.347Z,25.33
2022-11-20T22:11:39.663Z,25.85
2022-11-20T22:14:06.076Z,25.98
2022-11-20T22:16:36.795Z,25.65
2022-11-20T22:19:04.780Z,25.48
2022-11-20T22:21:32.093Z,25.27
2022-11-20T22:23:58.815Z,27.17
2022-11-20T22:26:40.251Z,29.60
2022-11-20T22:29:07.545Z,28.90
2022-11-20T22:31:34.063Z,29.80
2022-11-20T22:34:02.016Z,29.88
2022-11-20T22:36:30.357Z,28.73
2022-11-20T22:38:57.514Z,28.65
2022-11-20T22:41:28.405Z,28.88
2022-11-20T22:43:56.467Z,24.90
2022-11-20T22:46:23.937Z,26.63
2022-11-20T22:48:53.476Z,26.30
2022-11-20T22:51:22.874Z,26.55
2022-11-20T22:53:49.545Z,28.02
2022-11-20T22:56:16.680Z,27.27
2022-11-20T22:58:45.134Z,29.13
2022-11-20T23:01:15.322Z,28.30
2022-11-20T23:03:44.576Z,24.42
2022-11-20T23:06:12.062Z,25.17
2022-11-20T23:08:39.654Z,24.00
2022-11-20T23:11:16.884Z,24.45
2022-11-20T23:13:44.551Z,22.92
2022-11-20T23:16:13.869Z,22.90
2022-11-20T23:18:41.370Z,22.58
2022-11-20T23:21:16.202Z,22.80
2022-11-20T23:26:13.735Z,23.02
2022-11-20T23:28:40.885Z,22.27
2022-11-20T23:31:08.753Z,23.83
2022-11-20T23:33:36.035Z,25.58
2022-11-20T23:36:02.775Z,25.30
2022-11-20T23:38:29.145Z,24.63
2022-11-20T23:40:55.446Z,23.83
2022-11-20T23:43:22.484Z,22.90
2022-11-20T23:45:53.741Z,24.00
2022-11-20T23:48:21.622Z,22.52
2022-11-20T23:50:48.807Z,22.10
2022-11-20T23:53:15.986Z,21.58
2022-11-20T23:55:50.744Z,21.20
